Aspinwall, PA

3:52 AM EDT on July 08, 2015 (GMT -0400)
W. O'hara Township | | Change Station
CLOSE
Current Station
Personal Weather Station
Location: Pittsburgh, PA
Elevation: 1161 ft
Nearby Weather Stations

Elev 1161 ft 40.52 °N, 79.93 °W | Updated 2 seconds ago

Overcast
Overcast
70.7 °F
Feels Like 70.7 °F
N
0.2
Wind Variable Wind from SSE
Gusts 2.5 mph

Today
High -- | Low -- °F
--% Chance of Precip.
Yesterday
High -- | Low -- °F
Precip. -- in
5:56 AM 8:52 PM
Waning Gibbous, 56% visible
Pressure 29.98 in
Visibility 9.0 miles
Clouds Scattered Clouds 800 ft
Mostly Cloudy 1400 ft
Overcast 6500 ft
Dew Point 70 °F
Humidity 97%
Rainfall 0.04 in
Snow Depth Not available.
UV 0.0 out of 12
Pollen 3.40 out of 12
Air Quality Not available.
Flu Activity Not available.
SPECI KAGC 080727Z AUTO 20007KT 9SM SCT008 BKN014 OVC065 21/19 A2998 RMK AO2 T02110189 TSNO

More Conditions Fewer Conditions

Pressure 29.98 in
Visibility 9.0 miles
Clouds Scattered Clouds 800 ft
Mostly Cloudy 1400 ft
Overcast 6500 ft
Dew Point 70 °F
Humidity 97%
Rainfall 0.04 in
Snow Depth Not available.
UV 0.0 out of 12
Pollen 3.40 out of 12
Air Quality Not available.
Flu Activity Not available.
SPECI KAGC 080727Z AUTO 20007KT 9SM SCT008 BKN014 OVC065 21/19 A2998 RMK AO2 T02110189 TSNO

More Conditions Fewer Conditions

10-Day Weather Forecast

×

Almanac

Astronomy

Jul. 08, 2015 Rise Set
Actual Time
Civil Twilight
Nautical Twilight
Astronomical Twilight
Moon
Length of Visible Light
Length of Day
Tomorrow will be .
, % of the Moon is Illuminated

Today's Extremes

State Highs State Lows

Community

WunderPhotos

Upload Photos

1,836,064 photos uploaded!

WunderBlogs® & News

Nearby

Air Quality

  Air Quality AQ Index Pollutant
Not available.

Snow Depth

Station Depth Elevation

Earthquake Activity

City Distance Mag. Time & Date
Minimum magnitude displayed is 2.5.

Coastal Water Temperatures

Place Temperature

Stations

Nearby Weather Stations

Station Location Temp. Windchill Dew Point Humidity Wind Precip. Elev Updated Type
                   
Flood Watch / Flood Statement
Statement as of 3:46 AM EDT on July 08, 2015

... Flash Flood Watch is cancelled...

The Flash Flood Watch for portions of western Maryland... east
central Ohio... southwest Pennsylvania and West Virginia has been
cancelled. The threat for rain heavy enough to cause flooding has
ended.